sensor_id;sensor_type;location;lat;lon;timestamp;pressure;altitude;pressure_sealevel;temperature;humidity
44675;BME280;30388;52.038;-1.478;2022-08-21T00:00:10;66881.16;;;20.31;100.00
44675;BME280;30388;52.038;-1.478;2022-08-21T00:02:45;66872.58;;;19.98;100.00
44675;BME280;30388;52.038;-1.478;2022-08-21T00:05:13;66877.52;;;20.04;100.00
44675;BME280;30388;52.038;-1.478;2022-08-21T00:07:40;66863.92;;;20.32;100.00
44675;BME280;30388;52.038;-1.478;2022-08-21T00:10:09;66871.84;;;19.71;100.00
44675;BME280;30388;52.038;-1.478;2022-08-21T00:12:38;66881.08;;;20.09;100.00
44675;BME280;30388;52.038;-1.478;2022-08-21T00:15:07;66869.08;;;19.93;100.00
44675;BME280;30388;52.038;-1.478;2022-08-21T00:17:34;66872.08;;;19.98;100.00
44675;BME280;30388;52.038;-1.478;2022-08-21T00:20:04;66894.16;;;20.70;100.00
44675;BME280;30388;52.038;-1.478;2022-08-21T00:22:31;66871.59;;;19.97;100.00
44675;BME280;30388;52.038;-1.478;2022-08-21T00:24:58;66880.54;;;20.08;100.00
44675;BME280;30388;52.038;-1.478;2022-08-21T00:27:25;66861.81;;;20.06;100.00
44675;BME280;30388;52.038;-1.478;2022-08-21T00:29:52;66859.87;;;19.82;100.00
44675;BME280;30388;52.038;-1.478;2022-08-21T00:32:21;66866.52;;;19.90;100.00
44675;BME280;30388;52.038;-1.478;2022-08-21T00:34:48;66872.27;;;19.97;100.00
44675;BME280;30388;52.038;-1.478;2022-08-21T00:37:16;66856.79;;;20.00;100.00
44675;BME280;30388;52.038;-1.478;2022-08-21T00:39:43;66860.04;;;20.27;100.00
44675;BME280;30388;52.038;-1.478;2022-08-21T00:42:10;66861.44;;;20.07;100.00
44675;BME280;30388;52.038;-1.478;2022-08-21T00:44:37;66878.57;;;20.06;100.00
44675;BME280;30388;52.038;-1.478;2022-08-21T00:47:04;66863.10;;;20.31;100.00
44675;BME280;30388;52.038;-1.478;2022-08-21T00:49:32;66834.23;;;19.94;100.00
44675;BME280;30388;52.038;-1.478;2022-08-21T00:52:00;66781.30;;;19.55;100.00
44675;BME280;30388;52.038;-1.478;2022-08-21T00:54:30;66754.43;;;19.44;100.00
44675;BME280;30388;52.038;-1.478;2022-08-21T00:57:01;66723.67;;;19.04;100.00
44675;BME280;30388;52.038;-1.478;2022-08-21T00:59:33;66699.97;;;18.74;100.00
44675;BME280;30388;52.038;-1.478;2022-08-21T01:02:02;66645.51;;;18.33;100.00
44675;BME280;30388;52.038;-1.478;2022-08-21T01:04:30;66638.83;;;17.98;100.00
44675;BME280;30388;52.038;-1.478;2022-08-21T01:06:57;66655.27;;;18.19;100.00
44675;BME280;30388;52.038;-1.478;2022-08-21T01:09:26;66633.03;;;17.91;100.00
44675;BME280;30388;52.038;-1.478;2022-08-21T01:11:54;66652.20;;;18.64;100.00
44675;BME280;30388;52.038;-1.478;2022-08-21T01:14:22;66682.02;;;18.52;100.00
44675;BME280;30388;52.038;-1.478;2022-08-21T01:16:51;66656.24;;;18.46;100.00
44675;BME280;30388;52.038;-1.478;2022-08-21T01:19:20;66698.75;;;18.73;100.00
44675;BME280;30388;52.038;-1.478;2022-08-21T01:21:48;66694.80;;;18.68;100.00
44675;BME280;30388;52.038;-1.478;2022-08-21T01:24:15;66737.10;;;19.21;100.00
44675;BME280;30388;52.038;-1.478;2022-08-21T01:26:43;66766.84;;;19.59;100.00
44675;BME280;30388;52.038;-1.478;2022-08-21T01:29:14;66740.09;;;19.03;100.00
44675;BME280;30388;52.038;-1.478;2022-08-21T01:31:43;66750.00;;;19.38;100.00
44675;BME280;30388;52.038;-1.478;2022-08-21T01:34:11;66734.77;;;19.19;100.00
44675;BME280;30388;52.038;-1.478;2022-08-21T01:36:38;66733.26;;;18.95;100.00
44675;BME280;30388;52.038;-1.478;2022-08-21T01:39:05;66732.37;;;19.16;100.00
44675;BME280;30388;52.038;-1.478;2022-08-21T01:41:32;66632.67;;;17.90;100.00
44675;BME280;30388;52.038;-1.478;2022-08-21T01:43:59;66616.33;;;18.19;100.00
44675;BME280;30388;52.038;-1.478;2022-08-21T01:46:26;66591.38;;;17.65;100.00
44675;BME280;30388;52.038;-1.478;2022-08-21T01:48:54;66554.13;;;17.40;100.00
44675;BME280;30388;52.038;-1.478;2022-08-21T01:51:21;66500.86;;;16.96;100.00
44675;BME280;30388;52.038;-1.478;2022-08-21T01:53:49;66536.01;;;17.17;100.00
44675;BME280;30388;52.038;-1.478;2022-08-21T01:56:17;66558.41;;;17.47;100.00
44675;BME280;30388;52.038;-1.478;2022-08-21T01:58:47;66531.38;;;17.35;100.00
44675;BME280;30388;52.038;-1.478;2022-08-21T02:01:15;66545.67;;;17.31;100.00
44675;BME280;30388;52.038;-1.478;2022-08-21T02:03:42;66426.95;;;16.03;100.00
44675;BME280;30388;52.038;-1.478;2022-08-21T02:06:13;66396.62;;;15.92;100.00
44675;BME280;30388;52.038;-1.478;2022-08-21T02:08:41;66464.69;;;16.77;100.00
44675;BME280;30388;52.038;-1.478;2022-08-21T02:11:08;66490.87;;;17.10;100.00
44675;BME280;30388;52.038;-1.478;2022-08-21T02:13:35;66528.39;;;17.09;100.00
44675;BME280;30388;52.038;-1.478;2022-08-21T02:16:03;66543.37;;;17.50;100.00
44675;BME280;30388;52.038;-1.478;2022-08-21T02:18:30;66553.11;;;17.40;100.00
44675;BME280;30388;52.038;-1.478;2022-08-21T02:20:57;66542.49;;;17.25;100.00
44675;BME280;30388;52.038;-1.478;2022-08-21T02:23:25;66575.47;;;17.68;100.00
44675;BME280;30388;52.038;-1.478;2022-08-21T02:25:51;66548.29;;;17.34;100.00
44675;BME280;30388;52.038;-1.478;2022-08-21T02:28:18;66539.18;;;17.45;100.00
44675;BME280;30388;52.038;-1.478;2022-08-21T02:30:47;66439.40;;;15.97;100.00
44675;BME280;30388;52.038;-1.478;2022-08-21T02:33:15;66493.74;;;16.87;100.00
44675;BME280;30388;52.038;-1.478;2022-08-21T02:35:43;66402.91;;;16.00;100.00
44675;BME280;30388;52.038;-1.478;2022-08-21T02:38:14;66475.99;;;16.42;100.00
44675;BME280;30388;52.038;-1.478;2022-08-21T02:40:44;66545.02;;;17.52;100.00
44675;BME280;30388;52.038;-1.478;2022-08-21T02:43:12;66580.53;;;17.74;100.00
44675;BME280;30388;52.038;-1.478;2022-08-21T02:45:39;66582.05;;;17.76;100.00
44675;BME280;30388;52.038;-1.478;2022-08-21T02:48:10;66615.03;;;18.17;100.00
44675;BME280;30388;52.038;-1.478;2022-08-21T02:50:40;66643.08;;;18.30;100.00
44675;BME280;30388;52.038;-1.478;2022-08-21T02:53:10;66646.12;;;18.34;100.00
44675;BME280;30388;52.038;-1.478;2022-08-21T02:55:37;66638.75;;;17.98;100.00
44675;BME280;30388;52.038;-1.478;2022-08-21T02:58:07;66653.24;;;18.43;100.00
44675;BME280;30388;52.038;-1.478;2022-08-21T03:00:35;66659.35;;;18.25;100.00
44675;BME280;30388;52.038;-1.478;2022-08-21T03:03:04;66603.83;;;17.81;100.00
44675;BME280;30388;52.038;-1.478;2022-08-21T03:05:33;66564.87;;;17.55;100.00
44675;BME280;30388;52.038;-1.478;2022-08-21T03:08:04;66437.65;;;16.16;100.00
44675;BME280;30388;52.038;-1.478;2022-08-21T03:10:31;66508.86;;;17.06;100.00
44675;BME280;30388;52.038;-1.478;2022-08-21T03:12:58;66486.02;;;16.78;100.00
44675;BME280;30388;52.038;-1.478;2022-08-21T03:15:25;66539.32;;;17.45;100.00
44675;BME280;30388;52.038;-1.478;2022-08-21T03:17:52;66573.17;;;17.66;100.00
44675;BME280;30388;52.038;-1.478;2022-08-21T03:20:22;66571.25;;;17.63;100.00
44675;BME280;30388;52.038;-1.478;2022-08-21T03:22:50;66510.36;;;17.08;100.00
44675;BME280;30388;52.038;-1.478;2022-08-21T03:25:17;66525.96;;;17.28;100.00
44675;BME280;30388;52.038;-1.478;2022-08-21T03:27:44;66556.54;;;17.66;100.00
44675;BME280;30388;52.038;-1.478;2022-08-21T03:30:12;66391.55;;;15.85;100.00
44675;BME280;30388;52.038;-1.478;2022-08-21T03:32:38;66529.44;;;17.10;100.00
44675;BME280;30388;52.038;-1.478;2022-08-21T03:35:06;66567.14;;;17.57;100.00
44675;BME280;30388;52.038;-1.478;2022-08-21T03:37:33;66506.03;;;17.03;100.00
44675;BME280;30388;52.038;-1.478;2022-08-21T03:40:02;66521.51;;;17.00;100.00
44675;BME280;30388;52.038;-1.478;2022-08-21T03:42:30;66565.70;;;17.34;100.00
44675;BME280;30388;52.038;-1.478;2022-08-21T03:44:57;66504.02;;;17.00;100.00
44675;BME280;30388;52.038;-1.478;2022-08-21T03:47:24;66488.15;;;16.58;100.00
44675;BME280;30388;52.038;-1.478;2022-08-21T03:49:52;66438.25;;;16.43;100.00
44675;BME280;30388;52.038;-1.478;2022-08-21T03:52:19;66476.12;;;16.66;100.00
44675;BME280;30388;52.038;-1.478;2022-08-21T03:54:46;66474.89;;;16.90;100.00
44675;BME280;30388;52.038;-1.478;2022-08-21T03:57:14;66531.27;;;17.12;100.00
44675;BME280;30388;52.038;-1.478;2022-08-21T03:59:41;66467.63;;;16.54;100.00
44675;BME280;30388;52.038;-1.478;2022-08-21T04:02:08;66555.34;;;17.43;100.00
44675;BME280;30388;52.038;-1.478;2022-08-21T04:04:36;66591.83;;;17.88;100.00
44675;BME280;30388;52.038;-1.478;2022-08-21T04:07:04;66653.04;;;18.65;100.00
44675;BME280;30388;52.038;-1.478;2022-08-21T04:09:31;66640.69;;;18.01;100.00
44675;BME280;30388;52.038;-1.478;2022-08-21T04:11:59;66629.70;;;18.35;100.00
44675;BME280;30388;52.038;-1.478;2022-08-21T04:14:26;66680.87;;;18.51;100.00
44675;BME280;30388;52.038;-1.478;2022-08-21T04:16:53;66602.96;;;17.53;100.00
44675;BME280;30388;52.038;-1.478;2022-08-21T04:19:20;66612.32;;;17.65;100.00
44675;BME280;30388;52.038;-1.478;2022-08-21T04:21:47;66626.83;;;18.32;100.00
44675;BME280;30388;52.038;-1.478;2022-08-21T04:24:14;66606.42;;;17.84;100.00
44675;BME280;30388;52.038;-1.478;2022-08-21T04:26:41;66630.69;;;18.15;100.00
44675;BME280;30388;52.038;-1.478;2022-08-21T04:29:08;66657.55;;;18.48;100.00
44675;BME280;30388;52.038;-1.478;2022-08-21T04:31:36;66645.09;;;18.06;100.00
44675;BME280;30388;52.038;-1.478;2022-08-21T04:34:03;66645.14;;;18.06;100.00
44675;BME280;30388;52.038;-1.478;2022-08-21T04:36:31;66686.96;;;18.58;100.00
44675;BME280;30388;52.038;-1.478;2022-08-21T04:38:58;66646.53;;;18.34;100.00
44675;BME280;30388;52.038;-1.478;2022-08-21T04:41:27;66610.22;;;18.11;100.00
44675;BME280;30388;52.038;-1.478;2022-08-21T04:43:54;66650.32;;;18.62;100.00
44675;BME280;30388;52.038;-1.478;2022-08-21T04:46:22;66625.81;;;18.30;100.00
44675;BME280;30388;52.038;-1.478;2022-08-21T04:48:49;66645.94;;;18.08;100.00
44675;BME280;30388;52.038;-1.478;2022-08-21T04:51:19;66676.23;;;18.71;100.00
44675;BME280;30388;52.038;-1.478;2022-08-21T04:53:54;66680.46;;;18.77;100.00
44675;BME280;30388;52.038;-1.478;2022-08-21T04:56:32;66694.35;;;18.68;100.00
44675;BME280;30388;52.038;-1.478;2022-08-21T04:59:03;66669.09;;;18.36;100.00
44675;BME280;30388;52.038;-1.478;2022-08-21T05:01:34;66586.94;;;17.82;100.00
44675;BME280;30388;52.038;-1.478;2022-08-21T05:04:05;66608.20;;;17.60;100.00
44675;BME280;30388;52.038;-1.478;2022-08-21T05:06:35;66583.14;;;17.77;100.00
44675;BME280;30388;52.038;-1.478;2022-08-21T05:09:04;66605.28;;;18.06;100.00
44675;BME280;30388;52.038;-1.478;2022-08-21T05:11:33;66629.95;;;18.36;100.00
44675;BME280;30388;52.038;-1.478;2022-08-21T05:14:00;66613.98;;;17.95;100.00
44675;BME280;30388;52.038;-1.478;2022-08-21T05:16:27;66654.87;;;18.68;100.00
44675;BME280;30388;52.038;-1.478;2022-08-21T05:18:55;66661.92;;;18.28;100.00
44675;BME280;30388;52.038;-1.478;2022-08-21T05:21:22;66647.05;;;18.09;100.00
44675;BME280;30388;52.038;-1.478;2022-08-21T05:23:48;66679.68;;;18.76;100.00
44675;BME280;30388;52.038;-1.478;2022-08-21T05:26:15;66702.02;;;18.78;100.00
44675;BME280;30388;52.038;-1.478;2022-08-21T05:28:42;66717.67;;;18.98;100.00
44675;BME280;30388;52.038;-1.478;2022-08-21T05:31:09;66714.93;;;18.94;100.00
44675;BME280;30388;52.038;-1.478;2022-08-21T05:33:36;66741.93;;;19.05;100.00
44675;BME280;30388;52.038;-1.478;2022-08-21T05:36:03;66778.16;;;19.51;100.00
44675;BME280;30388;52.038;-1.478;2022-08-21T05:38:31;66775.18;;;19.47;100.00
44675;BME280;30388;52.038;-1.478;2022-08-21T05:40:58;66765.32;;;19.34;100.00
44675;BME280;30388;52.038;-1.478;2022-08-21T05:43:25;66736.76;;;19.21;100.00
44675;BME280;30388;52.038;-1.478;2022-08-21T05:45:52;66742.85;;;19.07;100.00
44675;BME280;30388;52.038;-1.478;2022-08-21T05:48:21;66738.46;;;19.01;100.00
44675;BME280;30388;52.038;-1.478;2022-08-21T05:50:50;66722.38;;;19.03;100.00
44675;BME280;30388;52.038;-1.478;2022-08-21T05:53:19;66712.80;;;18.92;100.00
44675;BME280;30388;52.038;-1.478;2022-08-21T05:55:47;66675.24;;;18.44;100.00
44675;BME280;30388;52.038;-1.478;2022-08-21T05:58:15;66638.26;;;17.98;100.00
44675;BME280;30388;52.038;-1.478;2022-08-21T06:00:44;66637.82;;;18.46;100.00
44675;BME280;30388;52.038;-1.478;2022-08-21T06:03:13;66623.10;;;18.05;100.00
44675;BME280;30388;52.038;-1.478;2022-08-21T06:05:41;66623.38;;;17.79;100.00
44675;BME280;30388;52.038;-1.478;2022-08-21T06:08:08;66558.19;;;16.97;100.00
44675;BME280;30388;52.038;-1.478;2022-08-21T06:10:35;66583.32;;;17.78;100.00
44675;BME280;30388;52.038;-1.478;2022-08-21T06:13:03;66570.85;;;17.84;100.00
44675;BME280;30388;52.038;-1.478;2022-08-21T06:15:30;66504.24;;;17.02;100.00
44675;BME280;30388;52.038;-1.478;2022-08-21T06:17:57;66544.75;;;17.30;100.00
44675;BME280;30388;52.038;-1.478;2022-08-21T06:20:24;66555.69;;;17.43;100.00
44675;BME280;30388;52.038;-1.478;2022-08-21T06:22:52;66498.41;;;16.94;100.00
44675;BME280;30388;52.038;-1.478;2022-08-21T06:25:18;66525.05;;;17.27;100.00
44675;BME280;30388;52.038;-1.478;2022-08-21T06:27:46;66593.84;;;17.91;100.00
44675;BME280;30388;52.038;-1.478;2022-08-21T06:30:14;66643.63;;;18.53;100.00
44675;BME280;30388;52.038;-1.478;2022-08-21T06:32:41;66621.96;;;18.04;100.00
44675;BME280;30388;52.038;-1.478;2022-08-21T06:35:08;66661.46;;;18.27;100.00
44675;BME280;30388;52.038;-1.478;2022-08-21T06:37:36;66627.31;;;18.34;100.00
44675;BME280;30388;52.038;-1.478;2022-08-21T06:40:05;66624.41;;;18.29;100.00
44675;BME280;30388;52.038;-1.478;2022-08-21T06:42:32;66559.13;;;17.47;100.00
44675;BME280;30388;52.038;-1.478;2022-08-21T06:44:59;66537.15;;;17.20;100.00
44675;BME280;30388;52.038;-1.478;2022-08-21T06:47:26;66537.45;;;17.21;100.00
44675;BME280;30388;52.038;-1.478;2022-08-21T06:49:53;66544.91;;;17.30;100.00
44675;BME280;30388;52.038;-1.478;2022-08-21T06:52:20;66577.65;;;17.71;100.00
44675;BME280;30388;52.038;-1.478;2022-08-21T06:54:46;66563.67;;;17.54;100.00
44675;BME280;30388;52.038;-1.478;2022-08-21T06:57:13;66425.61;;;16.02;100.00
44675;BME280;30388;52.038;-1.478;2022-08-21T06:59:40;66363.46;;;15.49;100.00
44675;BME280;30388;52.038;-1.478;2022-08-21T07:02:07;66481.28;;;16.72;100.00
44675;BME280;30388;52.038;-1.478;2022-08-21T07:04:34;66519.49;;;17.20;100.00
44675;BME280;30388;52.038;-1.478;2022-08-21T07:07:01;66612.10;;;18.14;100.00
44675;BME280;30388;52.038;-1.478;2022-08-21T07:09:28;66588.66;;;17.61;100.00
44675;BME280;30388;52.038;-1.478;2022-08-21T07:11:56;66714.94;;;18.94;100.00
44675;BME280;30388;52.038;-1.478;2022-08-21T07:14:24;66653.49;;;18.43;100.00
44675;BME280;30388;52.038;-1.478;2022-08-21T07:16:52;66679.11;;;18.49;100.00
44675;BME280;30388;52.038;-1.478;2022-08-21T07:19:19;66724.25;;;18.84;100.00
44675;BME280;30388;52.038;-1.478;2022-08-21T07:21:47;66665.95;;;18.33;100.00
44675;BME280;30388;52.038;-1.478;2022-08-21T07:24:15;66630.65;;;17.89;100.00
44675;BME280;30388;52.038;-1.478;2022-08-21T07:26:42;66695.87;;;18.71;100.00
44675;BME280;30388;52.038;-1.478;2022-08-21T07:29:08;66615.72;;;17.96;100.00
44675;BME280;30388;52.038;-1.478;2022-08-21T07:31:35;66696.50;;;18.71;100.00
44675;BME280;30388;52.038;-1.478;2022-08-21T07:34:02;66717.80;;;18.75;100.00
44675;BME280;30388;52.038;-1.478;2022-08-21T07:36:29;66739.95;;;19.25;100.00
44675;BME280;30388;52.038;-1.478;2022-08-21T07:38:56;66563.05;;;17.52;100.00
44675;BME280;30388;52.038;-1.478;2022-08-21T07:41:26;66522.13;;;17.23;100.00
44675;BME280;30388;52.038;-1.478;2022-08-21T07:43:53;66547.33;;;17.32;100.00
44675;BME280;30388;52.038;-1.478;2022-08-21T07:46:20;66605.14;;;18.05;100.00
44675;BME280;30388;52.038;-1.478;2022-08-21T07:48:48;66640.96;;;18.28;100.00
44675;BME280;30388;52.038;-1.478;2022-08-21T07:51:21;66643.34;;;18.54;100.00
44675;BME280;30388;52.038;-1.478;2022-08-21T07:53:51;66711.01;;;18.66;100.00
44675;BME280;30388;52.038;-1.478;2022-08-21T07:56:19;66690.79;;;18.64;100.00
44675;BME280;30388;52.038;-1.478;2022-08-21T07:58:47;66753.58;;;19.43;100.00
44675;BME280;30388;52.038;-1.478;2022-08-21T08:01:15;66762.47;;;19.54;100.00
44675;BME280;30388;52.038;-1.478;2022-08-21T08:03:42;66737.47;;;19.00;100.00
44675;BME280;30388;52.038;-1.478;2022-08-21T08:06:09;66783.61;;;19.80;100.00
44675;BME280;30388;52.038;-1.478;2022-08-21T08:08:36;66771.35;;;19.66;100.00
44675;BME280;30388;52.038;-1.478;2022-08-21T08:11:03;66717.73;;;18.75;100.00
44675;BME280;30388;52.038;-1.478;2022-08-21T08:13:31;66717.67;;;18.75;100.00
44675;BME280;30388;52.038;-1.478;2022-08-21T08:15:58;66757.02;;;19.47;100.00
44675;BME280;30388;52.038;-1.478;2022-08-21T08:18:25;66742.91;;;19.07;100.00
44675;BME280;30388;52.038;-1.478;2022-08-21T08:20:52;66693.29;;;18.67;100.00
44675;BME280;30388;52.038;-1.478;2022-08-21T08:23:19;66729.32;;;19.12;100.00
44675;BME280;30388;52.038;-1.478;2022-08-21T08:25:46;66846.28;;;20.37;100.00
44675;BME280;30388;52.038;-1.478;2022-08-21T08:28:14;66658.85;;;18.24;100.00
44675;BME280;30388;52.038;-1.478;2022-08-21T08:30:41;66624.34;;;17.80;100.00
44675;BME280;30388;52.038;-1.478;2022-08-21T08:33:15;66799.41;;;19.51;100.00
44675;BME280;30388;52.038;-1.478;2022-08-21T08:35:43;66780.38;;;19.27;100.00
44675;BME280;30388;52.038;-1.478;2022-08-21T08:38:11;66781.87;;;19.29;100.00
44675;BME280;30388;52.038;-1.478;2022-08-21T08:40:44;66841.23;;;20.04;100.00
44675;BME280;30388;52.038;-1.478;2022-08-21T08:43:13;66843.67;;;20.07;100.00
44675;BME280;30388;52.038;-1.478;2022-08-21T08:45:45;66906.85;;;20.42;100.00
44675;BME280;30388;52.038;-1.478;2022-08-21T08:48:16;66935.59;;;20.77;100.00
44675;BME280;30388;52.038;-1.478;2022-08-21T08:50:52;66831.56;;;19.91;100.00
44675;BME280;30388;52.038;-1.478;2022-08-21T08:53:23;66815.35;;;19.49;100.00
44675;BME280;30388;52.038;-1.478;2022-08-21T08:55:55;66821.31;;;20.05;100.00
44675;BME280;30388;52.038;-1.478;2022-08-21T08:58:26;66784.48;;;19.32;100.00
44675;BME280;30388;52.038;-1.478;2022-08-21T09:00:55;66816.08;;;19.98;100.00
44675;BME280;30388;52.038;-1.478;2022-08-21T09:03:24;66837.75;;;19.99;100.00
44675;BME280;30388;52.038;-1.478;2022-08-21T09:05:57;66830.28;;;19.90;100.00
44675;BME280;30388;52.038;-1.478;2022-08-21T09:08:41;66854.86;;;20.20;100.00
44675;BME280;30388;52.038;-1.478;2022-08-21T09:11:15;66935.12;;;21.21;100.00
44675;BME280;30388;52.038;-1.478;2022-08-21T09:13:54;66883.13;;;20.82;100.00
44675;BME280;30388;52.038;-1.478;2022-08-21T09:16:33;66840.33;;;20.02;100.00
44675;BME280;30388;52.038;-1.478;2022-08-21T09:19:22;66828.82;;;20.14;100.00
44675;BME280;30388;52.038;-1.478;2022-08-21T09:22:00;66796.88;;;19.96;100.00
44675;BME280;30388;52.038;-1.478;2022-08-21T09:24:32;66796.34;;;19.74;100.00
44675;BME280;30388;52.038;-1.478;2022-08-21T09:27:04;66789.30;;;19.88;100.00
44675;BME280;30388;52.038;-1.478;2022-08-21T09:29:41;66786.81;;;19.35;100.00
44675;BME280;30388;52.038;-1.478;2022-08-21T09:32:13;66734.15;;;19.18;100.00
44675;BME280;30388;52.038;-1.478;2022-08-21T09:34:41;66726.78;;;19.08;100.00
44675;BME280;30388;52.038;-1.478;2022-08-21T09:37:17;66714.32;;;18.93;100.00
44675;BME280;30388;52.038;-1.478;2022-08-21T09:39:44;66698.31;;;19.00;100.00
44675;BME280;30388;52.038;-1.478;2022-08-21T09:42:11;66710.65;;;18.88;100.00
44675;BME280;30388;52.038;-1.478;2022-08-21T09:44:40;66634.14;;;17.93;100.00
44675;BME280;30388;52.038;-1.478;2022-08-21T09:47:09;66729.41;;;19.12;100.00
44675;BME280;30388;52.038;-1.478;2022-08-21T09:49:38;66746.16;;;19.11;100.00
44675;BME280;30388;52.038;-1.478;2022-08-21T09:52:15;66811.24;;;20.15;100.00
44675;BME280;30388;52.038;-1.478;2022-08-21T09:54:45;66826.22;;;20.11;100.00
44675;BME280;30388;52.038;-1.478;2022-08-21T09:57:18;66773.28;;;19.44;100.00
44675;BME280;30388;52.038;-1.478;2022-08-21T09:59:47;66864.93;;;20.60;100.00
44675;BME280;30388;52.038;-1.478;2022-08-21T10:02:24;66845.91;;;19.87;100.00
44675;BME280;30388;52.038;-1.478;2022-08-21T10:04:54;66915.56;;;20.96;100.00
44675;BME280;30388;52.038;-1.478;2022-08-21T10:07:25;66772.40;;;19.44;100.00
44675;BME280;30388;52.038;-1.478;2022-08-21T10:10:03;66866.28;;;20.35;100.00
44675;BME280;30388;52.038;-1.478;2022-08-21T10:12:41;66806.79;;;19.60;100.00
44675;BME280;30388;52.038;-1.478;2022-08-21T10:15:22;66781.38;;;19.55;100.00
44675;BME280;30388;52.038;-1.478;2022-08-21T10:18:01;66831.35;;;20.17;100.00
44675;BME280;30388;52.038;-1.478;2022-08-21T10:20:35;66910.62;;;20.91;100.00
44675;BME280;30388;52.038;-1.478;2022-08-21T10:23:20;66887.05;;;20.61;100.00
44675;BME280;30388;52.038;-1.478;2022-08-21T10:25:50;66920.43;;;20.58;100.00
44675;BME280;30388;52.038;-1.478;2022-08-21T10:28:24;66930.22;;;20.70;100.00
44675;BME280;30388;52.038;-1.478;2022-08-21T10:31:00;66961.74;;;21.10;100.00
44675;BME280;30388;52.038;-1.478;2022-08-21T10:33:42;66960.05;;;21.08;100.00
44675;BME280;30388;52.038;-1.478;2022-08-21T10:36:17;66950.65;;;20.97;100.00
44675;BME280;30388;52.038;-1.478;2022-08-21T10:38:54;67004.05;;;21.62;100.00
44675;BME280;30388;52.038;-1.478;2022-08-21T10:41:31;67051.12;;;21.95;100.00
44675;BME280;30388;52.038;-1.478;2022-08-21T10:44:13;67137.99;;;22.81;100.00
44675;BME280;30388;52.038;-1.478;2022-08-21T10:46:50;67091.89;;;22.24;100.00
44675;BME280;30388;52.038;-1.478;2022-08-21T10:49:25;67144.54;;;22.67;100.00
44675;BME280;30388;52.038;-1.478;2022-08-21T10:52:13;67062.83;;;21.88;100.00
44675;BME280;30388;52.038;-1.478;2022-08-21T10:54:52;67081.30;;;22.10;100.00
44675;BME280;30388;52.038;-1.478;2022-08-21T10:57:29;67157.45;;;22.84;100.00
44675;BME280;30388;52.038;-1.478;2022-08-21T11:00:04;67161.26;;;23.11;100.00
44675;BME280;30388;52.038;-1.478;2022-08-21T11:02:37;67136.15;;;22.79;100.00
44675;BME280;30388;52.038;-1.478;2022-08-21T11:05:11;67053.82;;;22.25;100.00
44675;BME280;30388;52.038;-1.478;2022-08-21T11:07:44;67067.60;;;22.16;100.00
44675;BME280;30388;52.038;-1.478;2022-08-21T11:10:18;67112.95;;;22.50;100.00
44675;BME280;30388;52.038;-1.478;2022-08-21T11:12:52;66936.01;;;20.51;100.00
44675;BME280;30388;52.038;-1.478;2022-08-21T11:15:28;67048.27;;;21.70;100.00
44675;BME280;30388;52.038;-1.478;2022-08-21T11:18:12;67044.24;;;21.86;100.00
44675;BME280;30388;52.038;-1.478;2022-08-21T11:20:46;67163.33;;;23.12;100.00
44675;BME280;30388;52.038;-1.478;2022-08-21T11:23:21;67170.27;;;23.00;100.00
44675;BME280;30388;52.038;-1.478;2022-08-21T11:25:53;67241.33;;;23.62;100.00
44675;BME280;30388;52.038;-1.478;2022-08-21T11:28:26;67244.33;;;23.65;100.00
44675;BME280;30388;52.038;-1.478;2022-08-21T11:31:04;67364.48;;;24.66;100.00
44675;BME280;30388;52.038;-1.478;2022-08-21T11:33:45;67396.88;;;25.07;100.00
44675;BME280;30388;52.038;-1.478;2022-08-21T11:36:22;67291.97;;;24.25;100.00
44675;BME280;30388;52.038;-1.478;2022-08-21T11:39:00;67169.34;;;22.72;100.00
44675;BME280;30388;52.038;-1.478;2022-08-21T11:41:32;67258.81;;;23.61;100.00
44675;BME280;30388;52.038;-1.478;2022-08-21T11:44:09;67289.98;;;24.01;100.00
44675;BME280;30388;52.038;-1.478;2022-08-21T11:46:44;67195.90;;;23.05;100.00
44675;BME280;30388;52.038;-1.478;2022-08-21T11:49:31;67176.18;;;23.07;100.00
44675;BME280;30388;52.038;-1.478;2022-08-21T11:52:08;67129.46;;;22.49;100.00
44675;BME280;30388;52.038;-1.478;2022-08-21T11:54:42;67187.01;;;22.93;100.00
44675;BME280;30388;52.038;-1.478;2022-08-21T11:57:17;67191.24;;;23.25;100.00
44675;BME280;30388;52.038;-1.478;2022-08-21T11:59:51;66987.38;;;20.94;100.00
44675;BME280;30388;52.038;-1.478;2022-08-21T12:02:23;67086.05;;;22.17;100.00
44675;BME280;30388;52.038;-1.478;2022-08-21T12:04:53;66966.32;;;21.15;100.00
44675;BME280;30388;52.038;-1.478;2022-08-21T12:07:36;67024.31;;;21.61;100.00
44675;BME280;30388;52.038;-1.478;2022-08-21T12:10:08;67078.85;;;22.29;100.00
44675;BME280;30388;52.038;-1.478;2022-08-21T12:12:37;67093.94;;;22.49;100.00
44675;BME280;30388;52.038;-1.478;2022-08-21T12:15:15;67033.75;;;21.73;100.00
44675;BME280;30388;52.038;-1.478;2022-08-21T12:17:54;67115.32;;;22.53;100.00
44675;BME280;30388;52.038;-1.478;2022-08-21T12:20:35;67049.93;;;21.93;100.00
44675;BME280;30388;52.038;-1.478;2022-08-21T12:23:24;67099.73;;;22.55;100.00
44675;BME280;30388;52.038;-1.478;2022-08-21T12:26:34;67132.47;;;22.74;100.00
44675;BME280;30388;52.038;-1.478;2022-08-21T12:29:05;67206.26;;;23.18;100.00
44675;BME280;30388;52.038;-1.478;2022-08-21T12:31:34;67309.53;;;24.24;100.00
44675;BME280;30388;52.038;-1.478;2022-08-21T12:34:04;67271.57;;;23.50;100.00
44675;BME280;30388;52.038;-1.478;2022-08-21T12:36:43;67139.63;;;22.35;100.00
44675;BME280;30388;52.038;-1.478;2022-08-21T12:39:15;67270.67;;;23.76;100.00
44675;BME280;30388;52.038;-1.478;2022-08-21T12:41:47;67354.59;;;24.53;100.00
44675;BME280;30388;52.038;-1.478;2022-08-21T12:44:20;67330.07;;;24.23;100.00
44675;BME280;30388;52.038;-1.478;2022-08-21T12:46:51;67324.02;;;24.16;100.00
44675;BME280;30388;52.038;-1.478;2022-08-21T12:49:27;67359.21;;;24.87;100.00
44675;BME280;30388;52.038;-1.478;2022-08-21T12:52:02;67167.98;;;22.69;100.00
44675;BME280;30388;52.038;-1.478;2022-08-21T12:54:38;67173.81;;;22.77;100.00